createdAt,value
2023-05-05T00:00:27.732Z,19.0113
2023-05-05T00:01:28.839Z,18.9920
2023-05-05T00:02:30.051Z,18.9967
2023-05-05T00:03:31.134Z,18.9971
2023-05-05T00:04:32.163Z,18.9803
2023-05-05T00:05:33.282Z,18.9671
2023-05-05T00:06:34.386Z,18.9803
2023-05-05T00:07:35.522Z,18.9825
2023-05-05T00:08:36.591Z,18.9494
2023-05-05T00:09:37.717Z,18.8866
2023-05-05T00:10:38.805Z,18.9583
2023-05-05T00:11:39.920Z,18.9874
2023-05-05T00:12:41.053Z,19.0148
2023-05-05T00:13:42.151Z,19.0158
2023-05-05T00:14:43.231Z,19.0055
2023-05-05T00:15:44.340Z,18.9870
2023-05-05T00:16:45.457Z,18.9589
2023-05-05T00:17:46.630Z,18.9517
2023-05-05T00:18:47.658Z,18.9318
2023-05-05T00:19:48.755Z,18.9299
2023-05-05T00:20:49.883Z,18.9603
2023-05-05T00:21:50.957Z,18.9665
2023-05-05T00:22:52.075Z,19.0037
2023-05-05T00:23:53.181Z,19.0185
2023-05-05T00:24:54.291Z,18.9950
2023-05-05T00:25:55.380Z,19.0312
2023-05-05T00:26:56.494Z,19.0263
2023-05-05T00:27:57.604Z,19.0277
2023-05-05T00:28:58.711Z,18.9749
2023-05-05T00:29:59.815Z,18.9729
2023-05-05T00:31:00.957Z,19.0129
2023-05-05T00:32:02.037Z,19.0285
2023-05-05T00:33:03.217Z,19.0135
2023-05-05T00:34:04.252Z,18.9755
2023-05-05T00:35:05.327Z,18.9731
2023-05-05T00:36:06.407Z,18.9989
2023-05-05T00:37:07.520Z,19.0029
2023-05-05T00:38:08.638Z,19.0162
2023-05-05T00:39:09.705Z,18.9794
2023-05-05T00:40:10.796Z,18.9460
2023-05-05T00:41:11.905Z,18.9628
2023-05-05T00:42:13.022Z,18.9673
2023-05-05T00:43:14.093Z,18.9909
2023-05-05T00:44:15.188Z,19.0222
2023-05-05T00:45:16.291Z,19.0164
2023-05-05T00:46:17.410Z,18.9971
2023-05-05T00:47:18.469Z,18.9490
2023-05-05T00:48:19.592Z,18.9632
2023-05-05T00:49:20.703Z,18.9852
2023-05-05T00:50:21.773Z,18.9815
2023-05-05T00:51:22.841Z,18.9813
2023-05-05T00:52:23.930Z,18.9944
2023-05-05T00:53:25.234Z,19.0115
2023-05-05T00:54:26.124Z,19.0417
2023-05-05T00:55:27.225Z,19.0639
2023-05-05T00:56:28.311Z,19.0610
2023-05-05T00:57:29.394Z,19.0431
2023-05-05T00:58:30.494Z,19.0487
2023-05-05T00:59:31.582Z,18.9938
2023-05-05T01:00:32.696Z,18.9759
2023-05-05T01:01:33.799Z,19.0117
2023-05-05T01:02:34.944Z,19.0199
2023-05-05T01:03:36.080Z,19.0168
2023-05-05T01:04:37.093Z,19.0201
2023-05-05T01:05:38.167Z,19.0156
2023-05-05T01:06:39.255Z,19.0123
2023-05-05T01:07:40.358Z,18.9597
2023-05-05T01:08:41.496Z,18.9640
2023-05-05T01:09:42.535Z,18.9827
2023-05-05T01:10:43.643Z,18.9840
2023-05-05T01:11:44.764Z,19.0117
2023-05-05T01:12:45.863Z,18.9657
2023-05-05T01:13:46.967Z,18.9573
2023-05-05T01:14:48.020Z,18.9460
2023-05-05T01:15:49.118Z,18.9410
2023-05-05T01:16:50.213Z,18.9558
2023-05-05T01:17:51.319Z,18.9581
2023-05-05T01:18:52.420Z,18.9768
2023-05-05T01:19:53.505Z,18.9626
2023-05-05T01:20:54.585Z,18.9398
2023-05-05T01:21:55.686Z,18.9538
2023-05-05T01:22:56.800Z,18.9825
2023-05-05T01:23:57.877Z,18.9983
2023-05-05T01:24:58.989Z,18.9996
2023-05-05T01:26:00.097Z,18.9609
2023-05-05T01:27:01.168Z,18.9351
2023-05-05T01:28:02.275Z,18.9745
2023-05-05T01:29:03.403Z,19.0347
2023-05-05T01:30:04.477Z,19.0349
2023-05-05T01:31:05.578Z,18.9996
2023-05-05T01:32:06.656Z,19.0129
2023-05-05T01:33:07.744Z,19.0273
2023-05-05T01:34:08.865Z,18.9955
2023-05-05T01:35:09.957Z,18.9870
2023-05-05T01:36:11.021Z,19.0010
2023-05-05T01:37:12.139Z,19.0466
2023-05-05T01:38:13.231Z,19.0526
2023-05-05T01:39:14.333Z,19.0659
2023-05-05T01:40:15.424Z,19.0394
2023-05-05T01:41:16.525Z,19.0384
2023-05-05T01:42:17.609Z,19.0577
2023-05-05T01:43:18.694Z,19.0248
2023-05-05T01:44:19.790Z,19.0316
2023-05-05T01:45:20.889Z,19.0411
2023-05-05T01:46:22.031Z,19.0008
2023-05-05T01:47:23.089Z,18.9971
2023-05-05T01:48:24.209Z,19.0267
2023-05-05T01:49:25.298Z,19.0150
2023-05-05T01:50:26.372Z,18.9733
2023-05-05T01:51:27.481Z,18.9696
2023-05-05T01:52:28.576Z,18.9957
2023-05-05T01:53:29.681Z,19.0031
2023-05-05T01:54:30.780Z,19.0189
2023-05-05T01:55:31.876Z,19.0092
2023-05-05T01:56:32.981Z,19.0261
2023-05-05T01:57:34.046Z,19.0170
2023-05-05T01:58:35.145Z,18.9889
2023-05-05T01:59:36.248Z,19.0055
2023-05-05T02:00:37.357Z,19.0246
2023-05-05T02:01:38.541Z,19.0121
2023-05-05T02:02:39.614Z,18.9525
2023-05-05T02:03:40.637Z,18.9562
2023-05-05T02:04:41.754Z,18.9827
2023-05-05T02:05:50.379Z,18.9811
2023-05-05T02:06:43.937Z,18.9390
2023-05-05T02:07:45.050Z,18.9585
2023-05-05T02:08:46.265Z,18.9618
2023-05-05T02:09:47.323Z,18.9879
2023-05-05T02:10:48.456Z,19.0049
2023-05-05T02:11:49.510Z,19.0086
2023-05-05T02:12:50.611Z,19.0072
2023-05-05T02:13:51.820Z,19.0051
2023-05-05T02:14:52.800Z,18.9848
2023-05-05T02:15:53.887Z,18.9460
2023-05-05T02:16:54.981Z,18.9435
2023-05-05T02:17:56.097Z,18.9583
2023-05-05T02:18:57.206Z,18.9987
2023-05-05T02:19:58.285Z,19.0622
2023-05-05T02:20:59.368Z,19.0953
2023-05-05T02:22:00.452Z,19.0487
2023-05-05T02:23:01.542Z,19.0109
2023-05-05T02:24:02.660Z,18.9805
2023-05-05T02:25:03.747Z,18.9453
2023-05-05T02:26:04.839Z,18.9564
2023-05-05T02:27:05.935Z,18.9659
2023-05-05T02:28:07.026Z,19.0086
2023-05-05T02:29:08.141Z,19.0259
2023-05-05T02:30:09.395Z,19.0084
2023-05-05T02:31:10.362Z,19.0267
2023-05-05T02:32:11.410Z,19.0201
2023-05-05T02:33:12.501Z,18.9846
2023-05-05T02:34:13.592Z,18.9907
2023-05-05T02:35:14.700Z,19.0168
2023-05-05T02:36:15.766Z,19.0351
2023-05-05T02:37:16.860Z,19.0051
2023-05-05T02:38:17.960Z,18.9809
2023-05-05T02:39:19.035Z,18.9950
2023-05-05T02:40:20.201Z,19.0244
2023-05-05T02:41:21.245Z,19.0230
2023-05-05T02:42:22.317Z,19.0277
2023-05-05T02:43:23.460Z,19.0211
2023-05-05T02:44:24.519Z,18.9796
2023-05-05T02:45:25.624Z,18.9889
2023-05-05T02:46:26.714Z,19.0012
2023-05-05T02:47:27.840Z,18.9856
2023-05-05T02:48:28.913Z,18.9737
2023-05-05T02:49:29.986Z,19.0230
2023-05-05T02:50:31.085Z,19.0380
2023-05-05T02:51:32.150Z,19.0000
2023-05-05T02:52:33.247Z,18.9445
2023-05-05T02:53:34.352Z,18.9168
2023-05-05T02:54:35.447Z,18.9657
2023-05-05T02:55:36.692Z,19.0082
2023-05-05T02:56:37.614Z,19.0199
2023-05-05T02:57:38.701Z,19.0429
2023-05-05T02:58:39.818Z,19.0807
2023-05-05T02:59:40.889Z,19.0674
2023-05-05T03:00:41.987Z,19.0248
2023-05-05T03:01:43.102Z,19.0209
2023-05-05T03:02:44.234Z,19.0006
2023-05-05T03:03:45.367Z,19.0158
2023-05-05T03:04:46.365Z,19.0117
2023-05-05T03:05:47.513Z,18.9753
2023-05-05T03:06:48.540Z,18.9108
2023-05-05T03:07:49.637Z,18.9260
2023-05-05T03:08:50.728Z,18.9445
2023-05-05T03:09:51.835Z,18.9909
2023-05-05T03:10:52.921Z,19.0047
2023-05-05T03:11:54.021Z,19.0057
2023-05-05T03:12:55.180Z,19.0189
2023-05-05T03:13:56.204Z,19.0133
2023-05-05T03:14:57.309Z,19.0458
2023-05-05T03:15:58.423Z,19.0452
2023-05-05T03:16:59.506Z,19.0532
2023-05-05T03:18:00.634Z,19.0811
2023-05-05T03:19:01.690Z,19.0733
2023-05-05T03:20:05.388Z,19.0587
2023-05-05T03:21:03.868Z,19.0676
2023-05-05T03:22:04.953Z,19.0464
2023-05-05T03:23:06.074Z,19.0470
2023-05-05T03:24:07.181Z,19.0441
2023-05-05T03:25:08.258Z,19.0380
2023-05-05T03:26:09.367Z,19.0324
2023-05-05T03:27:10.439Z,19.0411
2023-05-05T03:28:11.534Z,19.0308
2023-05-05T03:29:12.635Z,19.0156
2023-05-05T03:30:13.715Z,19.0164
2023-05-05T03:31:14.850Z,18.9866
2023-05-05T03:32:15.932Z,18.9807
2023-05-05T03:33:17.010Z,19.0008
2023-05-05T03:34:18.100Z,18.9887
2023-05-05T03:35:19.203Z,19.0039
2023-05-05T03:36:20.314Z,19.0205
2023-05-05T03:37:21.404Z,19.0092
2023-05-05T03:38:22.517Z,18.9780
2023-05-05T03:39:23.599Z,18.9759
2023-05-05T03:40:36.334Z,19.0164
2023-05-05T03:41:26.809Z,19.0047
2023-05-05T03:42:26.887Z,18.9388
2023-05-05T03:43:27.976Z,18.9435
2023-05-05T03:44:29.094Z,18.9373
2023-05-05T03:45:30.177Z,18.9082
2023-05-05T03:46:31.297Z,18.9371
2023-05-05T03:47:32.408Z,18.9425
2023-05-05T03:48:33.455Z,18.9626
2023-05-05T03:49:34.549Z,18.9404
2023-05-05T03:50:35.660Z,18.9285
2023-05-05T03:51:36.779Z,18.9591
2023-05-05T03:52:37.852Z,18.9593
2023-05-05T03:53:38.952Z,19.0057
2023-05-05T03:54:40.068Z,18.9973
2023-05-05T03:55:41.124Z,19.0072
2023-05-05T03:56:42.261Z,19.0070
2023-05-05T03:57:43.346Z,18.9944
2023-05-05T03:58:44.424Z,18.9632
2023-05-05T03:59:45.529Z,18.9792
2023-05-05T04:00:46.633Z,19.0074
2023-05-05T04:01:47.745Z,18.9973
2023-05-05T04:02:48.891Z,18.9798
2023-05-05T04:03:49.950Z,18.9353
2023-05-05T04:04:51.014Z,18.9127
2023-05-05T04:05:52.099Z,18.9324
2023-05-05T04:06:53.212Z,18.9269
2023-05-05T04:07:54.338Z,18.9092
2023-05-05T04:08:55.416Z,18.9351
2023-05-05T04:09:56.511Z,18.9630
2023-05-05T04:10:57.626Z,19.0131
2023-05-05T04:11:58.722Z,19.0088
2023-05-05T04:12:59.841Z,19.0033
2023-05-05T04:14:00.896Z,19.0065
2023-05-05T04:15:02.021Z,19.0018
2023-05-05T04:16:03.147Z,18.9731
2023-05-05T04:17:04.212Z,19.0000
2023-05-05T04:18:05.339Z,18.9776
2023-05-05T04:19:06.413Z,19.0014
2023-05-05T04:20:07.692Z,19.0031
2023-05-05T04:21:08.609Z,18.9568
2023-05-05T04:22:09.699Z,18.9784
2023-05-05T04:23:10.787Z,18.9955
2023-05-05T04:24:11.882Z,18.9842
2023-05-05T04:25:13.003Z,18.9825
2023-05-05T04:26:14.080Z,19.0203
2023-05-05T04:27:15.212Z,19.0435
2023-05-05T04:28:16.288Z,18.9597
2023-05-05T04:29:17.370Z,18.8928
2023-05-05T04:30:18.487Z,18.9445
2023-05-05T04:31:19.589Z,18.9646
2023-05-05T04:32:20.698Z,18.9271
2023-05-05T04:33:21.761Z,18.9125
2023-05-05T04:34:22.877Z,18.9375
2023-05-05T04:35:23.949Z,18.9825
2023-05-05T04:36:25.044Z,18.9661
2023-05-05T04:37:26.193Z,18.9318
2023-05-05T04:38:27.296Z,18.8995
2023-05-05T04:39:28.344Z,18.8630
2023-05-05T04:40:29.452Z,18.9151
2023-05-05T04:41:30.571Z,18.9453
2023-05-05T04:42:31.635Z,19.0080
2023-05-05T04:43:32.747Z,19.0456
2023-05-05T04:44:33.832Z,19.0359
2023-05-05T04:45:34.929Z,18.9924
2023-05-05T04:46:36.081Z,18.9661
2023-05-05T04:47:37.156Z,18.9852
2023-05-05T04:48:38.216Z,18.9967
2023-05-05T04:49:39.314Z,19.0074
2023-05-05T04:50:40.421Z,18.9720
2023-05-05T04:51:41.512Z,18.9626
2023-05-05T04:52:42.628Z,18.9759
2023-05-05T04:53:43.702Z,18.9273
2023-05-05T04:54:44.786Z,18.8726
2023-05-05T04:55:45.898Z,18.9221
2023-05-05T04:56:46.975Z,18.9205
2023-05-05T04:57:48.103Z,18.8743
2023-05-05T04:58:49.178Z,18.9082
2023-05-05T04:59:50.272Z,18.9119
2023-05-05T05:00:51.356Z,18.8736
2023-05-05T05:01:52.473Z,18.8755
2023-05-05T05:02:53.611Z,18.8256
2023-05-05T05:03:54.673Z,18.8398
2023-05-05T05:04:55.748Z,18.8794
2023-05-05T05:05:56.832Z,18.8876
2023-05-05T05:06:59.305Z,18.8650
2023-05-05T05:07:59.046Z,18.8837
2023-05-05T05:09:00.156Z,18.8607
2023-05-05T05:10:01.238Z,18.8303
2023-05-05T05:11:02.322Z,18.8274
2023-05-05T05:12:03.447Z,18.8525
2023-05-05T05:13:04.553Z,18.8605
2023-05-05T05:14:05.630Z,18.9092
2023-05-05T05:15:06.731Z,18.8973
2023-05-05T05:16:07.929Z,18.8432
2023-05-05T05:17:08.930Z,18.8128
2023-05-05T05:18:10.043Z,18.8451
2023-05-05T05:19:11.130Z,18.8901
2023-05-05T05:20:12.216Z,18.8856
2023-05-05T05:21:13.319Z,18.8930
2023-05-05T05:22:14.421Z,18.8886
2023-05-05T05:23:15.519Z,18.9028
2023-05-05T05:24:16.642Z,18.9511
2023-05-05T05:25:17.710Z,18.9098
2023-05-05T05:26:18.800Z,18.9073
2023-05-05T05:27:19.912Z,18.9394
2023-05-05T05:28:21.002Z,18.8722
2023-05-05T05:29:22.102Z,18.8862
2023-05-05T05:30:23.200Z,18.9499
2023-05-05T05:31:24.322Z,18.9305
2023-05-05T05:32:25.419Z,18.9166
2023-05-05T05:33:26.517Z,18.9464
2023-05-05T05:34:27.606Z,18.9289
2023-05-05T05:35:28.707Z,18.9297
2023-05-05T05:36:29.820Z,18.9377
2023-05-05T05:37:30.902Z,18.9316
2023-05-05T05:38:32.003Z,18.9199
2023-05-05T05:39:33.102Z,18.9476
2023-05-05T05:40:34.182Z,18.9476
2023-05-05T05:41:35.304Z,18.9451
2023-05-05T05:42:36.374Z,18.9671
2023-05-05T05:43:37.487Z,19.0022
2023-05-05T05:44:38.597Z,18.9745
2023-05-05T05:45:39.727Z,18.9143
2023-05-05T05:46:40.903Z,18.8560
2023-05-05T05:47:41.905Z,18.8958
2023-05-05T05:48:42.957Z,18.8685
2023-05-05T05:49:44.058Z,18.8784
2023-05-05T05:50:45.162Z,18.8932
2023-05-05T05:51:46.264Z,18.9170
2023-05-05T05:52:47.374Z,18.9400
2023-05-05T05:53:48.446Z,18.9349
2023-05-05T05:54:49.551Z,18.9141
2023-05-05T05:55:50.650Z,18.8603
2023-05-05T05:56:51.751Z,18.8071
2023-05-05T05:57:52.854Z,18.8153
2023-05-05T05:58:54.121Z,18.8480
2023-05-05T05:59:55.042Z,18.9110
2023-05-05T06:00:56.154Z,18.9644
2023-05-05T06:01:57.259Z,18.9866
2023-05-05T06:02:58.404Z,18.9745
2023-05-05T06:03:59.496Z,18.9866
2023-05-05T06:05:00.524Z,19.0037
2023-05-05T06:06:01.658Z,18.9858
2023-05-05T06:07:02.724Z,18.9098
2023-05-05T06:08:03.826Z,18.8880
2023-05-05T06:09:04.957Z,18.9174
2023-05-05T06:10:25.190Z,18.9158
2023-05-05T06:11:08.203Z,18.9018
2023-05-05T06:12:08.304Z,18.9527
2023-05-05T06:13:09.427Z,19.0086
2023-05-05T06:14:10.514Z,19.0018
2023-05-05T06:15:11.586Z,19.0033
2023-05-05T06:16:12.746Z,18.9840
2023-05-05T06:17:13.782Z,19.0203
2023-05-05T06:18:14.898Z,19.1037
2023-05-05T06:19:15.990Z,19.1425
2023-05-05T06:20:17.061Z,19.1933
2023-05-05T06:21:18.148Z,19.2541
2023-05-05T06:22:19.247Z,19.2348
2023-05-05T06:23:20.359Z,19.2428
2023-05-05T06:24:21.465Z,19.2639
2023-05-05T06:25:22.539Z,19.1951
2023-05-05T06:26:23.636Z,19.2668
2023-05-05T06:27:24.755Z,19.2635
2023-05-05T06:28:25.825Z,19.2508
2023-05-05T06:29:26.930Z,19.2592
2023-05-05T06:30:28.020Z,19.2851
2023-05-05T06:31:29.178Z,19.3323
2023-05-05T06:32:30.226Z,19.3874
2023-05-05T06:33:31.302Z,19.3866
2023-05-05T06:34:32.446Z,19.4085
2023-05-05T06:35:33.528Z,19.2843
2023-05-05T06:36:34.687Z,19.2300
2023-05-05T06:37:35.716Z,19.1781
2023-05-05T06:38:36.821Z,19.1444
2023-05-05T06:39:37.921Z,18.9700
2023-05-05T06:40:39.009Z,18.9492
2023-05-05T06:41:40.097Z,18.9903
2023-05-05T06:42:41.194Z,19.1645
2023-05-05T06:43:42.286Z,19.2789
2023-05-05T06:44:43.396Z,19.2861
2023-05-05T06:45:44.507Z,19.2765
2023-05-05T06:46:45.611Z,19.2804
2023-05-05T06:47:46.723Z,19.1768
2023-05-05T06:48:47.811Z,19.1029
2023-05-05T06:49:48.896Z,19.1125
2023-05-05T06:50:49.982Z,19.1795
2023-05-05T06:51:51.085Z,19.2621
2023-05-05T06:52:52.175Z,19.2157
2023-05-05T06:53:53.274Z,19.1487
2023-05-05T06:54:54.379Z,19.0959
2023-05-05T06:55:55.464Z,19.1397
2023-05-05T06:56:59.331Z,19.0846
2023-05-05T06:57:57.700Z,19.1021
2023-05-05T06:58:58.771Z,19.0569
2023-05-05T07:00:00.004Z,18.9614
2023-05-05T07:01:01.025Z,18.9673
2023-05-05T07:02:02.079Z,19.0844
2023-05-05T07:03:03.212Z,19.1353
2023-05-05T07:04:04.357Z,19.0542
2023-05-05T07:05:05.348Z,19.0519
2023-05-05T07:06:06.464Z,19.1166
2023-05-05T07:07:07.549Z,19.1974
2023-05-05T07:08:08.645Z,19.1431
2023-05-05T07:09:09.777Z,19.1411
2023-05-05T07:10:10.939Z,19.1553
2023-05-05T07:11:11.983Z,19.1540
2023-05-05T07:12:13.064Z,19.0965
2023-05-05T07:13:14.229Z,19.1253
2023-05-05T07:14:15.273Z,19.0415
2023-05-05T07:15:26.737Z,19.0885
2023-05-05T07:16:18.470Z,19.1142
2023-05-05T07:17:18.552Z,19.1779
2023-05-05T07:18:19.652Z,19.1620
2023-05-05T07:19:20.757Z,19.1201
2023-05-05T07:20:21.869Z,19.0826
2023-05-05T07:21:22.968Z,19.0092
2023-05-05T07:22:24.077Z,19.1173
2023-05-05T07:23:25.145Z,19.2771
2023-05-05T07:24:26.242Z,19.1972
2023-05-05T07:25:27.364Z,19.2179
2023-05-05T07:26:28.439Z,19.0924
2023-05-05T07:27:29.546Z,19.1132
2023-05-05T07:28:30.631Z,19.0326
2023-05-05T07:29:31.738Z,19.0162
2023-05-05T07:30:32.880Z,19.0879
2023-05-05T07:31:33.949Z,19.1992
2023-05-05T07:32:35.027Z,19.2383
2023-05-05T07:33:36.135Z,19.1586
2023-05-05T07:34:37.477Z,19.1130
2023-05-05T07:35:38.309Z,19.1846
2023-05-05T07:36:39.408Z,19.1684
2023-05-05T07:37:40.492Z,19.1840
2023-05-05T07:38:41.601Z,19.1625
2023-05-05T07:39:42.716Z,19.1735
2023-05-05T07:40:43.813Z,19.1688
2023-05-05T07:41:44.895Z,19.1395
2023-05-05T07:42:45.988Z,19.2253
2023-05-05T07:43:47.089Z,19.2680
2023-05-05T07:44:48.193Z,19.3299
2023-05-05T07:45:49.342Z,19.3128
2023-05-05T07:46:50.357Z,19.3323
2023-05-05T07:47:51.481Z,19.3436
2023-05-05T07:48:52.556Z,19.3062
2023-05-05T07:49:53.638Z,19.2849
2023-05-05T07:50:54.769Z,19.2875
2023-05-05T07:51:55.863Z,19.2908
2023-05-05T07:53:06.215Z,19.2921
2023-05-05T07:53:59.037Z,19.2506
2023-05-05T07:54:59.143Z,19.2658
2023-05-05T07:56:00.269Z,19.2668
2023-05-05T07:57:01.349Z,19.2576
2023-05-05T07:58:02.434Z,19.2818
2023-05-05T07:59:03.555Z,19.2820
2023-05-05T08:00:04.765Z,19.2233
2023-05-05T08:01:05.912Z,19.2029
2023-05-05T08:02:06.924Z,19.1785
2023-05-05T08:03:11.307Z,19.1674
2023-05-05T08:04:09.092Z,19.2561
2023-05-05T08:05:10.264Z,19.2921
2023-05-05T08:06:11.310Z,19.2882
2023-05-05T08:07:12.324Z,19.3204
2023-05-05T08:08:13.418Z,19.2836
2023-05-05T08:09:14.539Z,19.3087
2023-05-05T08:10:15.610Z,19.2557
2023-05-05T08:11:16.722Z,19.2469
2023-05-05T08:12:17.875Z,19.2711
2023-05-05T08:13:19.004Z,19.2769
2023-05-05T08:14:20.037Z,19.2888
2023-05-05T08:15:21.090Z,19.2325
2023-05-05T08:16:22.289Z,19.2052
2023-05-05T08:17:23.310Z,19.1696
2023-05-05T08:18:24.378Z,19.1733
2023-05-05T08:19:29.250Z,19.2212
2023-05-05T08:20:26.564Z,19.2495
2023-05-05T08:21:27.680Z,19.2859
2023-05-05T08:22:28.740Z,19.3223
2023-05-05T08:23:29.842Z,19.3095
2023-05-05T08:24:30.939Z,19.3301
2023-05-05T08:25:32.073Z,19.3393
2023-05-05T08:26:33.157Z,19.3560
2023-05-05T08:27:34.250Z,19.4120
2023-05-05T08:28:35.354Z,19.4024
2023-05-05T08:29:36.429Z,19.4287
2023-05-05T08:30:37.559Z,19.4118
2023-05-05T08:31:38.910Z,19.3656
2023-05-05T08:32:39.813Z,19.3393
2023-05-05T08:33:40.840Z,19.2954
2023-05-05T08:34:41.927Z,19.3438
2023-05-05T08:35:43.038Z,19.3709
2023-05-05T08:36:44.166Z,19.3350
2023-05-05T08:37:45.233Z,19.4026
2023-05-05T08:38:46.350Z,19.4843
2023-05-05T08:39:47.453Z,19.4217
2023-05-05T08:40:48.541Z,19.3009
2023-05-05T08:41:49.644Z,19.3073
2023-05-05T08:42:50.747Z,19.3083
2023-05-05T08:43:51.826Z,19.3251
2023-05-05T08:44:52.942Z,19.3013
2023-05-05T08:45:54.044Z,19.3759
2023-05-05T08:46:55.229Z,19.4098
2023-05-05T08:47:56.275Z,19.3898
2023-05-05T08:48:57.334Z,19.3703
2023-05-05T08:49:58.438Z,19.3650
2023-05-05T08:51:00.791Z,19.4057
2023-05-05T08:52:00.638Z,19.4231
2023-05-05T08:53:01.760Z,19.4334
2023-05-05T08:54:02.811Z,19.4950
2023-05-05T08:55:03.917Z,19.5073
2023-05-05T08:56:05.024Z,19.4704
2023-05-05T08:57:06.141Z,19.4114
2023-05-05T08:58:07.236Z,19.4523
2023-05-05T08:59:08.319Z,19.5205
2023-05-05T09:00:09.419Z,19.5043
2023-05-05T09:01:10.624Z,19.5544
2023-05-05T09:02:11.776Z,19.5439
2023-05-05T09:03:12.842Z,19.5634
2023-05-05T09:04:13.800Z,19.5199
2023-05-05T09:05:14.908Z,19.4439
2023-05-05T09:06:16.003Z,19.4724
2023-05-05T09:07:17.102Z,19.5757
2023-05-05T09:08:18.183Z,19.5891
2023-05-05T09:09:19.280Z,19.6304
2023-05-05T09:10:20.374Z,19.6505
2023-05-05T09:11:21.479Z,19.6595
2023-05-05T09:12:22.579Z,19.7173
2023-05-05T09:13:23.660Z,19.7855
2023-05-05T09:14:24.780Z,19.8331
2023-05-05T09:15:25.869Z,19.8533
2023-05-05T09:16:26.978Z,19.7863
2023-05-05T09:17:28.145Z,19.8239
2023-05-05T09:18:29.129Z,19.8631
2023-05-05T09:19:30.220Z,19.9038
2023-05-05T09:20:31.316Z,19.9574
2023-05-05T09:21:32.474Z,19.9763
2023-05-05T09:22:33.527Z,19.9568
2023-05-05T09:23:34.613Z,19.9233
2023-05-05T09:24:35.706Z,19.8263
2023-05-05T09:25:36.800Z,19.8202
2023-05-05T09:26:37.915Z,19.8454
2023-05-05T09:27:39.016Z,19.8563
2023-05-05T09:28:40.101Z,19.9699
2023-05-05T09:29:41.256Z,20.0211
2023-05-05T09:30:42.339Z,20.0560
2023-05-05T09:31:43.410Z,20.0917
2023-05-05T09:32:44.670Z,20.0751
2023-05-05T09:33:45.600Z,20.0722
2023-05-05T09:34:46.675Z,20.0377
2023-05-05T09:35:47.783Z,19.8742
2023-05-05T09:36:48.916Z,19.8569
2023-05-05T09:37:49.994Z,19.9623
2023-05-05T09:38:51.071Z,19.9785
2023-05-05T09:39:52.179Z,20.0065
2023-05-05T09:40:53.272Z,20.0322
2023-05-05T09:41:54.379Z,19.9796
2023-05-05T09:42:55.474Z,20.0020
2023-05-05T09:43:56.565Z,20.0938
2023-05-05T09:44:59.679Z,20.0326
2023-05-05T09:45:58.819Z,19.9644
2023-05-05T09:46:59.876Z,20.0217
2023-05-05T09:48:01.176Z,20.0999
2023-05-05T09:49:02.070Z,19.9518
2023-05-05T09:50:03.160Z,19.9533
2023-05-05T09:51:04.256Z,20.0523
2023-05-05T09:52:05.379Z,20.0901
2023-05-05T09:53:06.451Z,20.0874
2023-05-05T09:54:07.575Z,20.0003
2023-05-05T09:55:08.657Z,20.0328
2023-05-05T09:56:09.753Z,20.0303
2023-05-05T09:57:10.836Z,19.8619
2023-05-05T09:58:11.972Z,19.8888
2023-05-05T09:59:13.054Z,19.9859
2023-05-05T10:00:14.150Z,20.0788
2023-05-05T10:01:15.258Z,20.0946
2023-05-05T10:02:16.352Z,20.1246
2023-05-05T10:03:17.515Z,20.1527
2023-05-05T10:04:18.535Z,20.1353
2023-05-05T10:05:19.680Z,20.1607
2023-05-05T10:06:20.728Z,20.2388
2023-05-05T10:07:21.831Z,20.0603
2023-05-05T10:08:22.915Z,20.0757
2023-05-05T10:09:24.026Z,20.1412
2023-05-05T10:10:26.903Z,20.0198
2023-05-05T10:11:26.296Z,19.9746
2023-05-05T10:12:27.400Z,20.1320
2023-05-05T10:13:28.505Z,20.2135
2023-05-05T10:14:29.576Z,20.2834
2023-05-05T10:15:30.655Z,20.2345
2023-05-05T10:16:31.849Z,20.1322
2023-05-05T10:17:32.921Z,20.1096
2023-05-05T10:18:34.032Z,20.2043
2023-05-05T10:19:35.066Z,20.2407
2023-05-05T10:20:36.195Z,20.2842
2023-05-05T10:21:37.234Z,20.2869
2023-05-05T10:22:38.324Z,20.1862
2023-05-05T10:23:39.427Z,20.1232
2023-05-05T10:24:40.529Z,20.2121
2023-05-05T10:25:41.623Z,20.2897
2023-05-05T10:26:42.725Z,20.2992
2023-05-05T10:27:43.818Z,20.2900
2023-05-05T10:28:44.963Z,20.1907
2023-05-05T10:29:46.035Z,20.1905
2023-05-05T10:30:47.098Z,20.2096
2023-05-05T10:31:48.215Z,20.1492
2023-05-05T10:32:54.389Z,20.0950
2023-05-05T10:33:51.586Z,20.1642
2023-05-05T10:34:51.487Z,20.3002
2023-05-05T10:35:52.593Z,20.3010
2023-05-05T10:36:53.703Z,20.1704
2023-05-05T10:37:54.806Z,20.1819
2023-05-05T10:38:55.903Z,20.1521
2023-05-05T10:39:56.967Z,20.3216
2023-05-05T10:40:58.063Z,20.4485
2023-05-05T10:41:59.191Z,20.5720
2023-05-05T10:43:00.271Z,20.6443
2023-05-05T10:44:04.284Z,20.6761
2023-05-05T10:45:02.501Z,20.5399
2023-05-05T10:46:03.590Z,20.4270
2023-05-05T10:47:04.668Z,20.5095
2023-05-05T10:48:05.811Z,20.5019
2023-05-05T10:49:06.859Z,20.5116
2023-05-05T10:50:08.190Z,20.5278
2023-05-05T10:51:09.056Z,20.4204
2023-05-05T10:52:10.129Z,20.3522
2023-05-05T10:53:11.271Z,20.2918
2023-05-05T10:54:12.391Z,20.3483
2023-05-05T10:55:13.484Z,20.4083
2023-05-05T10:56:14.528Z,20.5582
2023-05-05T10:57:15.635Z,20.6465
2023-05-05T10:58:16.713Z,20.6391
2023-05-05T10:59:17.811Z,20.7367
2023-05-05T11:00:18.918Z,20.8318
2023-05-05T11:01:20.050Z,20.8893
2023-05-05T11:02:21.130Z,20.7412
2023-05-05T11:03:22.383Z,20.6866
2023-05-05T11:04:23.460Z,20.6120
2023-05-05T11:05:24.387Z,20.6081
2023-05-05T11:06:25.490Z,20.5350
2023-05-05T11:07:26.574Z,20.5305
2023-05-05T11:08:27.690Z,20.5935
2023-05-05T11:09:28.897Z,20.7852
2023-05-05T11:10:29.875Z,20.7628
2023-05-05T11:11:30.968Z,20.6813
2023-05-05T11:12:32.150Z,20.7055
2023-05-05T11:13:33.168Z,20.7799
2023-05-05T11:14:34.290Z,20.8988
2023-05-05T11:15:35.435Z,20.9731
2023-05-05T11:16:36.473Z,21.0237
2023-05-05T11:17:37.538Z,20.9740
2023-05-05T11:18:38.663Z,20.8750
2023-05-05T11:19:39.852Z,20.8600
2023-05-05T11:20:40.837Z,20.8860
2023-05-05T11:21:41.910Z,20.8877
2023-05-05T11:22:43.020Z,20.9060
2023-05-05T11:23:44.116Z,20.8698
2023-05-05T11:24:45.227Z,20.8314
2023-05-05T11:25:46.314Z,20.9019
2023-05-05T11:26:47.427Z,20.9047
2023-05-05T11:27:48.496Z,20.9117
2023-05-05T11:28:49.601Z,20.9395
2023-05-05T11:29:52.051Z,20.9750
2023-05-05T11:30:51.839Z,21.0003
2023-05-05T11:31:52.878Z,20.9314
2023-05-05T11:32:54.085Z,20.7269
2023-05-05T11:33:55.087Z,20.6278
2023-05-05T11:34:56.265Z,20.5019
2023-05-05T11:35:57.286Z,20.4880
2023-05-05T11:36:58.376Z,20.6502
2023-05-05T11:37:59.471Z,20.7053
2023-05-05T11:39:00.570Z,20.6671
2023-05-05T11:40:01.696Z,20.7568
2023-05-05T11:41:02.779Z,20.7788
2023-05-05T11:42:09.410Z,20.8216
2023-05-05T11:43:05.976Z,20.8653
2023-05-05T11:44:06.068Z,20.8731
2023-05-05T11:45:07.163Z,20.8959
2023-05-05T11:46:08.306Z,20.8053
2023-05-05T11:47:09.354Z,20.8074
2023-05-05T11:48:10.457Z,20.8107
2023-05-05T11:49:11.532Z,20.8392
2023-05-05T11:50:12.738Z,20.8489
2023-05-05T11:51:13.729Z,20.9156
2023-05-05T11:52:14.873Z,20.9536
2023-05-05T11:53:15.918Z,20.8953
2023-05-05T11:54:17.025Z,20.8402
2023-05-05T11:55:18.123Z,20.8663
2023-05-05T11:56:19.446Z,20.9008
2023-05-05T11:57:20.322Z,20.9082
2023-05-05T11:58:21.410Z,20.8614
2023-05-05T11:59:22.513Z,20.8109
2023-05-05T12:00:23.610Z,20.7499
2023-05-05T12:01:24.705Z,20.7805
2023-05-05T12:02:25.839Z,20.7990
2023-05-05T12:03:27.144Z,20.7067
2023-05-05T12:04:28.037Z,20.6895
2023-05-05T12:05:29.194Z,20.6572
2023-05-05T12:06:30.212Z,20.6451
2023-05-05T12:07:31.309Z,20.5999
2023-05-05T12:08:32.394Z,20.5753
2023-05-05T12:09:33.476Z,20.5512
2023-05-05T12:10:34.600Z,20.5288
2023-05-05T12:11:35.746Z,20.5438
2023-05-05T12:12:36.792Z,20.6521
2023-05-05T12:13:37.863Z,20.6895
2023-05-05T12:14:38.962Z,20.6574
2023-05-05T12:15:40.072Z,20.5422
2023-05-05T12:16:41.335Z,20.6055
2023-05-05T12:17:42.317Z,20.5521
2023-05-05T12:18:43.370Z,20.5451